sensor_id;sensor_type;location;lat;lon;timestamp;P1;durP1;ratioP1;P2;durP2;ratioP2
3873;SDS011;1952;50.872;6.692;2022-12-07T00:32:35;16.40;;;13.70;;
3873;SDS011;1952;50.872;6.692;2022-12-07T00:35:04;20.97;;;15.60;;
3873;SDS011;1952;50.872;6.692;2022-12-07T00:37:32;18.80;;;14.80;;
3873;SDS011;1952;50.872;6.692;2022-12-07T00:40:06;15.93;;;14.07;;
3873;SDS011;1952;50.872;6.692;2022-12-07T00:42:39;19.50;;;15.03;;
3873;SDS011;1952;50.872;6.692;2022-12-07T00:45:08;13.90;;;12.40;;
3873;SDS011;1952;50.872;6.692;2022-12-07T00:47:37;19.50;;;12.90;;
3873;SDS011;1952;50.872;6.692;2022-12-07T00:50:10;16.40;;;14.63;;
3873;SDS011;1952;50.872;6.692;2022-12-07T00:52:38;15.63;;;12.40;;
3873;SDS011;1952;50.872;6.692;2022-12-07T00:55:07;15.90;;;11.90;;
3873;SDS011;1952;50.872;6.692;2022-12-07T00:57:40;16.47;;;13.83;;
3873;SDS011;1952;50.872;6.692;2022-12-07T01:00:08;17.07;;;14.30;;
3873;SDS011;1952;50.872;6.692;2022-12-07T01:02:38;17.47;;;14.50;;
3873;SDS011;1952;50.872;6.692;2022-12-07T01:05:07;15.70;;;13.17;;
3873;SDS011;1952;50.872;6.692;2022-12-07T01:07:35;19.47;;;13.60;;
3873;SDS011;1952;50.872;6.692;2022-12-07T01:10:03;18.10;;;13.50;;
3873;SDS011;1952;50.872;6.692;2022-12-07T01:12:31;17.40;;;14.60;;
3873;SDS011;1952;50.872;6.692;2022-12-07T01:15:00;22.33;;;15.53;;
3873;SDS011;1952;50.872;6.692;2022-12-07T01:17:28;18.10;;;13.50;;
3873;SDS011;1952;50.872;6.692;2022-12-07T01:19:58;18.77;;;15.57;;
3873;SDS011;1952;50.872;6.692;2022-12-07T01:22:26;15.07;;;12.63;;
3873;SDS011;1952;50.872;6.692;2022-12-07T01:24:59;24.40;;;16.23;;
3873;SDS011;1952;50.872;6.692;2022-12-07T01:27:27;16.27;;;14.37;;
3873;SDS011;1952;50.872;6.692;2022-12-07T01:29:55;18.23;;;14.70;;
3873;SDS011;1952;50.872;6.692;2022-12-07T01:32:24;23.70;;;15.57;;
3873;SDS011;1952;50.872;6.692;2022-12-07T01:34:58;18.70;;;15.40;;
3873;SDS011;1952;50.872;6.692;2022-12-07T01:37:26;16.30;;;13.63;;
3873;SDS011;1952;50.872;6.692;2022-12-07T01:39:59;16.07;;;14.43;;
3873;SDS011;1952;50.872;6.692;2022-12-07T01:42:28;16.83;;;13.37;;
3873;SDS011;1952;50.872;6.692;2022-12-07T01:47:44;20.10;;;17.90;;
3873;SDS011;1952;50.872;6.692;2022-12-07T01:50:14;18.07;;;13.60;;
3873;SDS011;1952;50.872;6.692;2022-12-07T01:52:43;18.10;;;14.90;;
3873;SDS011;1952;50.872;6.692;2022-12-07T01:55:13;14.63;;;13.10;;
3873;SDS011;1952;50.872;6.692;2022-12-07T01:57:42;17.23;;;15.40;;
3873;SDS011;1952;50.872;6.692;2022-12-07T02:00:13;16.27;;;14.70;;
3873;SDS011;1952;50.872;6.692;2022-12-07T02:02:47;17.27;;;14.57;;
3873;SDS011;1952;50.872;6.692;2022-12-07T02:05:17;15.97;;;13.37;;
3873;SDS011;1952;50.872;6.692;2022-12-07T02:07:46;15.37;;;11.83;;
3873;SDS011;1952;50.872;6.692;2022-12-07T02:10:15;17.77;;;14.60;;
3873;SDS011;1952;50.872;6.692;2022-12-07T02:12:44;12.83;;;11.27;;
3873;SDS011;1952;50.872;6.692;2022-12-07T02:15:18;15.23;;;13.47;;
3873;SDS011;1952;50.872;6.692;2022-12-07T02:17:50;17.40;;;14.30;;
3873;SDS011;1952;50.872;6.692;2022-12-07T02:20:25;18.93;;;13.73;;
3873;SDS011;1952;50.872;6.692;2022-12-07T02:23:04;20.87;;;14.63;;
3873;SDS011;1952;50.872;6.692;2022-12-07T02:25:57;17.17;;;15.07;;
3873;SDS011;1952;50.872;6.692;2022-12-07T02:28:31;14.40;;;12.93;;
3873;SDS011;1952;50.872;6.692;2022-12-07T02:31:08;16.37;;;13.83;;
3873;SDS011;1952;50.872;6.692;2022-12-07T02:33:40;16.87;;;14.37;;
3873;SDS011;1952;50.872;6.692;2022-12-07T02:36:10;15.80;;;13.30;;
3873;SDS011;1952;50.872;6.692;2022-12-07T02:38:43;17.73;;;13.60;;
3873;SDS011;1952;50.872;6.692;2022-12-07T02:41:13;14.63;;;13.10;;
3873;SDS011;1952;50.872;6.692;2022-12-07T02:43:50;15.67;;;14.07;;
3873;SDS011;1952;50.872;6.692;2022-12-07T02:46:22;15.07;;;12.03;;
3873;SDS011;1952;50.872;6.692;2022-12-07T02:48:51;16.47;;;12.63;;
3873;SDS011;1952;50.872;6.692;2022-12-07T02:51:26;18.00;;;15.83;;
3873;SDS011;1952;50.872;6.692;2022-12-07T02:53:58;15.07;;;12.43;;
3873;SDS011;1952;50.872;6.692;2022-12-07T02:56:27;17.90;;;13.93;;
3873;SDS011;1952;50.872;6.692;2022-12-07T02:59:01;21.50;;;15.77;;
3873;SDS011;1952;50.872;6.692;2022-12-07T03:01:33;15.10;;;12.00;;
3873;SDS011;1952;50.872;6.692;2022-12-07T03:04:14;15.70;;;13.60;;
3873;SDS011;1952;50.872;6.692;2022-12-07T03:07:01;13.40;;;12.00;;
3873;SDS011;1952;50.872;6.692;2022-12-07T03:09:40;17.70;;;15.90;;
3873;SDS011;1952;50.872;6.692;2022-12-07T03:12:16;18.37;;;16.40;;
3873;SDS011;1952;50.872;6.692;2022-12-07T03:14:52;18.77;;;16.10;;
3873;SDS011;1952;50.872;6.692;2022-12-07T03:17:24;19.00;;;15.10;;
3873;SDS011;1952;50.872;6.692;2022-12-07T03:19:58;17.50;;;14.77;;
3873;SDS011;1952;50.872;6.692;2022-12-07T03:22:31;16.90;;;14.17;;
3873;SDS011;1952;50.872;6.692;2022-12-07T03:25:02;16.77;;;13.00;;
3873;SDS011;1952;50.872;6.692;2022-12-07T03:27:38;18.67;;;13.83;;
3873;SDS011;1952;50.872;6.692;2022-12-07T03:30:14;17.10;;;14.77;;
3873;SDS011;1952;50.872;6.692;2022-12-07T03:32:44;18.50;;;15.10;;
3873;SDS011;1952;50.872;6.692;2022-12-07T03:35:14;18.73;;;14.47;;
3873;SDS011;1952;50.872;6.692;2022-12-07T03:37:50;16.80;;;15.00;;
3873;SDS011;1952;50.872;6.692;2022-12-07T03:40:21;17.50;;;15.30;;
3873;SDS011;1952;50.872;6.692;2022-12-07T03:42:50;19.47;;;15.57;;
3873;SDS011;1952;50.872;6.692;2022-12-07T03:45:20;20.70;;;17.10;;
3873;SDS011;1952;50.872;6.692;2022-12-07T03:47:59;18.90;;;15.80;;
3873;SDS011;1952;50.872;6.692;2022-12-07T03:50:31;18.13;;;12.70;;
3873;SDS011;1952;50.872;6.692;2022-12-07T03:53:02;24.60;;;16.77;;
3873;SDS011;1952;50.872;6.692;2022-12-07T03:55:33;18.03;;;13.37;;
3873;SDS011;1952;50.872;6.692;2022-12-07T03:58:03;25.90;;;16.90;;
3873;SDS011;1952;50.872;6.692;2022-12-07T04:00:33;15.13;;;13.53;;
3873;SDS011;1952;50.872;6.692;2022-12-07T04:03:02;17.50;;;14.97;;
3873;SDS011;1952;50.872;6.692;2022-12-07T04:05:31;18.07;;;14.17;;
3873;SDS011;1952;50.872;6.692;2022-12-07T04:07:59;22.50;;;16.67;;
3873;SDS011;1952;50.872;6.692;2022-12-07T04:10:32;20.93;;;16.63;;
3873;SDS011;1952;50.872;6.692;2022-12-07T04:13:00;20.00;;;15.87;;
3873;SDS011;1952;50.872;6.692;2022-12-07T04:15:33;18.83;;;16.70;;
3873;SDS011;1952;50.872;6.692;2022-12-07T04:18:03;21.10;;;15.53;;
3873;SDS011;1952;50.872;6.692;2022-12-07T04:20:31;15.50;;;13.90;;
3873;SDS011;1952;50.872;6.692;2022-12-07T04:22:59;22.07;;;16.03;;
3873;SDS011;1952;50.872;6.692;2022-12-07T04:25:28;18.73;;;15.03;;
3873;SDS011;1952;50.872;6.692;2022-12-07T04:28:01;22.10;;;14.90;;
3873;SDS011;1952;50.872;6.692;2022-12-07T04:30:34;18.73;;;16.57;;
3873;SDS011;1952;50.872;6.692;2022-12-07T04:33:03;18.13;;;14.90;;
3873;SDS011;1952;50.872;6.692;2022-12-07T04:35:31;19.80;;;15.97;;
3873;SDS011;1952;50.872;6.692;2022-12-07T04:38:00;17.43;;;14.10;;
3873;SDS011;1952;50.872;6.692;2022-12-07T04:40:28;19.97;;;15.17;;
3873;SDS011;1952;50.872;6.692;2022-12-07T04:43:01;20.00;;;14.73;;
3873;SDS011;1952;50.872;6.692;2022-12-07T04:45:30;14.67;;;13.27;;
3873;SDS011;1952;50.872;6.692;2022-12-07T04:48:05;17.07;;;14.30;;
3873;SDS011;1952;50.872;6.692;2022-12-07T04:50:34;17.20;;;14.77;;
3873;SDS011;1952;50.872;6.692;2022-12-07T04:53:11;18.40;;;14.13;;
3873;SDS011;1952;50.872;6.692;2022-12-07T04:55:39;20.27;;;15.50;;
3873;SDS011;1952;50.872;6.692;2022-12-07T04:58:12;18.37;;;14.90;;
3873;SDS011;1952;50.872;6.692;2022-12-07T05:00:40;18.13;;;15.90;;
3873;SDS011;1952;50.872;6.692;2022-12-07T05:03:15;18.33;;;16.50;;
3873;SDS011;1952;50.872;6.692;2022-12-07T05:05:43;19.50;;;14.90;;
3873;SDS011;1952;50.872;6.692;2022-12-07T05:08:16;19.33;;;14.37;;
3873;SDS011;1952;50.872;6.692;2022-12-07T05:10:50;18.90;;;14.40;;
3873;SDS011;1952;50.872;6.692;2022-12-07T05:13:23;22.43;;;15.13;;
3873;SDS011;1952;50.872;6.692;2022-12-07T05:15:52;17.63;;;15.00;;
3873;SDS011;1952;50.872;6.692;2022-12-07T05:18:22;17.70;;;13.10;;
3873;SDS011;1952;50.872;6.692;2022-12-07T05:20:50;16.47;;;13.90;;
3873;SDS011;1952;50.872;6.692;2022-12-07T05:23:24;26.53;;;14.73;;
3873;SDS011;1952;50.872;6.692;2022-12-07T05:25:52;16.30;;;12.50;;
3873;SDS011;1952;50.872;6.692;2022-12-07T05:28:25;17.80;;;14.30;;
3873;SDS011;1952;50.872;6.692;2022-12-07T05:30:53;16.80;;;12.70;;
3873;SDS011;1952;50.872;6.692;2022-12-07T05:33:26;14.83;;;13.23;;
3873;SDS011;1952;50.872;6.692;2022-12-07T05:36:00;18.20;;;13.37;;
3873;SDS011;1952;50.872;6.692;2022-12-07T05:38:37;16.13;;;12.50;;
3873;SDS011;1952;50.872;6.692;2022-12-07T05:41:11;16.80;;;14.50;;
3873;SDS011;1952;50.872;6.692;2022-12-07T05:43:59;15.87;;;12.70;;
3873;SDS011;1952;50.872;6.692;2022-12-07T05:46:32;19.70;;;14.00;;
3873;SDS011;1952;50.872;6.692;2022-12-07T05:49:02;18.27;;;15.20;;
3873;SDS011;1952;50.872;6.692;2022-12-07T05:51:30;15.77;;;13.50;;
3873;SDS011;1952;50.872;6.692;2022-12-07T06:33:16;16.13;;;13.60;;
3873;SDS011;1952;50.872;6.692;2022-12-07T06:35:45;19.67;;;14.50;;
3873;SDS011;1952;50.872;6.692;2022-12-07T06:38:14;15.73;;;14.00;;
3873;SDS011;1952;50.872;6.692;2022-12-07T06:40:47;19.33;;;13.70;;
3873;SDS011;1952;50.872;6.692;2022-12-07T06:43:20;19.27;;;14.77;;
3873;SDS011;1952;50.872;6.692;2022-12-07T06:45:49;15.00;;;13.40;;
3873;SDS011;1952;50.872;6.692;2022-12-07T06:48:18;15.40;;;13.10;;
3873;SDS011;1952;50.872;6.692;2022-12-07T06:50:52;16.87;;;14.17;;
3873;SDS011;1952;50.872;6.692;2022-12-07T06:53:20;16.60;;;14.03;;
3873;SDS011;1952;50.872;6.692;2022-12-07T06:55:48;20.73;;;13.30;;
3873;SDS011;1952;50.872;6.692;2022-12-07T06:58:18;17.97;;;14.80;;
3873;SDS011;1952;50.872;6.692;2022-12-07T07:00:49;19.13;;;15.27;;
3873;SDS011;1952;50.872;6.692;2022-12-07T07:03:20;15.90;;;11.90;;
3873;SDS011;1952;50.872;6.692;2022-12-07T07:05:48;23.20;;;15.67;;
3873;SDS011;1952;50.872;6.692;2022-12-07T07:08:17;17.50;;;14.17;;
3873;SDS011;1952;50.872;6.692;2022-12-07T07:10:45;16.43;;;12.67;;
3873;SDS011;1952;50.872;6.692;2022-12-07T07:13:18;15.57;;;13.90;;
3873;SDS011;1952;50.872;6.692;2022-12-07T07:15:47;16.77;;;13.23;;
3873;SDS011;1952;50.872;6.692;2022-12-07T07:18:15;17.53;;;13.43;;
3873;SDS011;1952;50.872;6.692;2022-12-07T07:20:45;23.70;;;15.50;;
3873;SDS011;1952;50.872;6.692;2022-12-07T07:23:18;14.70;;;13.10;;
3873;SDS011;1952;50.872;6.692;2022-12-07T07:25:51;17.00;;;15.23;;
3873;SDS011;1952;50.872;6.692;2022-12-07T07:28:33;19.00;;;13.60;;
3873;SDS011;1952;50.872;6.692;2022-12-07T07:31:08;15.97;;;13.03;;
3873;SDS011;1952;50.872;6.692;2022-12-07T07:33:37;14.13;;;12.73;;
3873;SDS011;1952;50.872;6.692;2022-12-07T07:36:11;14.43;;;12.37;;
3873;SDS011;1952;50.872;6.692;2022-12-07T07:38:45;16.10;;;13.60;;
3873;SDS011;1952;50.872;6.692;2022-12-07T07:41:18;13.53;;;12.13;;
3873;SDS011;1952;50.872;6.692;2022-12-07T07:43:46;11.90;;;10.53;;
3873;SDS011;1952;50.872;6.692;2022-12-07T07:46:20;16.00;;;14.30;;
3873;SDS011;1952;50.872;6.692;2022-12-07T07:48:48;19.83;;;13.93;;
3873;SDS011;1952;50.872;6.692;2022-12-07T07:51:19;16.73;;;14.70;;
3873;SDS011;1952;50.872;6.692;2022-12-07T07:53:49;13.30;;;10.90;;
3873;SDS011;1952;50.872;6.692;2022-12-07T07:56:17;16.30;;;11.03;;
3873;SDS011;1952;50.872;6.692;2022-12-07T07:58:51;16.20;;;12.53;;
3873;SDS011;1952;50.872;6.692;2022-12-07T08:01:24;17.30;;;12.90;;
3873;SDS011;1952;50.872;6.692;2022-12-07T08:03:57;14.70;;;12.40;;
3873;SDS011;1952;50.872;6.692;2022-12-07T08:06:27;16.57;;;13.83;;
3873;SDS011;1952;50.872;6.692;2022-12-07T08:08:57;18.43;;;10.97;;
3873;SDS011;1952;50.872;6.692;2022-12-07T08:11:26;11.40;;;10.27;;
3873;SDS011;1952;50.872;6.692;2022-12-07T08:13:54;14.63;;;11.77;;
3873;SDS011;1952;50.872;6.692;2022-12-07T08:16:23;21.60;;;12.07;;
3873;SDS011;1952;50.872;6.692;2022-12-07T08:18:51;14.83;;;11.67;;
3873;SDS011;1952;50.872;6.692;2022-12-07T08:21:20;13.80;;;10.63;;
3873;SDS011;1952;50.872;6.692;2022-12-07T08:23:49;13.80;;;12.10;;
3873;SDS011;1952;50.872;6.692;2022-12-07T08:26:18;14.60;;;12.03;;
3873;SDS011;1952;50.872;6.692;2022-12-07T08:28:46;14.50;;;10.43;;
3873;SDS011;1952;50.872;6.692;2022-12-07T08:31:19;14.97;;;9.43;;
3873;SDS011;1952;50.872;6.692;2022-12-07T08:33:53;16.60;;;11.97;;
3873;SDS011;1952;50.872;6.692;2022-12-07T08:36:21;13.97;;;12.37;;
3873;SDS011;1952;50.872;6.692;2022-12-07T08:38:56;13.50;;;11.27;;
3873;SDS011;1952;50.872;6.692;2022-12-07T08:41:44;13.43;;;11.47;;
3873;SDS011;1952;50.872;6.692;2022-12-07T08:44:12;11.73;;;10.00;;
3873;SDS011;1952;50.872;6.692;2022-12-07T08:46:41;14.37;;;10.03;;
3873;SDS011;1952;50.872;6.692;2022-12-07T08:49:14;15.03;;;10.13;;
3873;SDS011;1952;50.872;6.692;2022-12-07T08:51:43;12.50;;;10.80;;
3873;SDS011;1952;50.872;6.692;2022-12-07T08:54:16;14.50;;;10.57;;
3873;SDS011;1952;50.872;6.692;2022-12-07T08:56:45;12.90;;;10.17;;
3873;SDS011;1952;50.872;6.692;2022-12-07T08:59:20;12.70;;;10.90;;
3873;SDS011;1952;50.872;6.692;2022-12-07T09:01:54;15.50;;;12.37;;
3873;SDS011;1952;50.872;6.692;2022-12-07T09:04:22;13.83;;;11.57;;
3873;SDS011;1952;50.872;6.692;2022-12-07T09:06:51;13.63;;;11.30;;
3873;SDS011;1952;50.872;6.692;2022-12-07T09:09:21;14.80;;;11.37;;
3873;SDS011;1952;50.872;6.692;2022-12-07T09:11:54;13.20;;;11.10;;
3873;SDS011;1952;50.872;6.692;2022-12-07T09:14:27;14.27;;;9.87;;
3873;SDS011;1952;50.872;6.692;2022-12-07T09:17:04;12.47;;;10.07;;
3873;SDS011;1952;50.872;6.692;2022-12-07T09:19:32;10.00;;;9.10;;
3873;SDS011;1952;50.872;6.692;2022-12-07T09:22:01;14.90;;;9.80;;
3873;SDS011;1952;50.872;6.692;2022-12-07T09:24:34;14.50;;;11.10;;
3873;SDS011;1952;50.872;6.692;2022-12-07T09:27:13;15.77;;;10.77;;
3873;SDS011;1952;50.872;6.692;2022-12-07T09:29:43;12.20;;;10.90;;
3873;SDS011;1952;50.872;6.692;2022-12-07T09:32:17;12.87;;;10.93;;
3873;SDS011;1952;50.872;6.692;2022-12-07T09:34:50;14.17;;;10.50;;
3873;SDS011;1952;50.872;6.692;2022-12-07T09:37:18;8.97;;;7.60;;
3873;SDS011;1952;50.872;6.692;2022-12-07T09:39:48;12.27;;;7.93;;
3873;SDS011;1952;50.872;6.692;2022-12-07T09:42:25;12.23;;;9.90;;
3873;SDS011;1952;50.872;6.692;2022-12-07T09:45:00;12.03;;;9.37;;
3873;SDS011;1952;50.872;6.692;2022-12-07T09:47:29;12.67;;;10.13;;
3873;SDS011;1952;50.872;6.692;2022-12-07T09:50:03;12.60;;;9.83;;
3873;SDS011;1952;50.872;6.692;2022-12-07T09:52:31;14.50;;;10.60;;
3873;SDS011;1952;50.872;6.692;2022-12-07T09:55:02;12.87;;;10.73;;
3873;SDS011;1952;50.872;6.692;2022-12-07T09:57:33;10.47;;;9.37;;
3873;SDS011;1952;50.872;6.692;2022-12-07T10:00:04;11.33;;;9.00;;
3873;SDS011;1952;50.872;6.692;2022-12-07T10:02:38;12.17;;;10.63;;
3873;SDS011;1952;50.872;6.692;2022-12-07T10:05:10;10.40;;;9.30;;
3873;SDS011;1952;50.872;6.692;2022-12-07T10:07:47;9.57;;;8.40;;
3873;SDS011;1952;50.872;6.692;2022-12-07T10:10:18;13.80;;;10.30;;
3873;SDS011;1952;50.872;6.692;2022-12-07T10:12:56;11.90;;;9.07;;
3873;SDS011;1952;50.872;6.692;2022-12-07T10:15:46;12.33;;;10.13;;
3873;SDS011;1952;50.872;6.692;2022-12-07T10:18:19;9.53;;;8.53;;
3873;SDS011;1952;50.872;6.692;2022-12-07T10:20:59;18.20;;;9.27;;
3873;SDS011;1952;50.872;6.692;2022-12-07T10:23:33;9.80;;;8.80;;
3873;SDS011;1952;50.872;6.692;2022-12-07T10:28:47;11.33;;;10.20;;
3873;SDS011;1952;50.872;6.692;2022-12-07T10:31:21;10.17;;;8.53;;
3873;SDS011;1952;50.872;6.692;2022-12-07T10:33:51;9.83;;;8.07;;
3873;SDS011;1952;50.872;6.692;2022-12-07T10:36:21;9.17;;;8.17;;
3873;SDS011;1952;50.872;6.692;2022-12-07T10:38:51;12.97;;;9.47;;
3873;SDS011;1952;50.872;6.692;2022-12-07T10:41:19;9.63;;;8.07;;
3873;SDS011;1952;50.872;6.692;2022-12-07T10:43:53;9.30;;;8.30;;
3873;SDS011;1952;50.872;6.692;2022-12-07T10:49:08;8.60;;;7.70;;
3873;SDS011;1952;50.872;6.692;2022-12-07T10:51:40;11.77;;;7.30;;
3873;SDS011;1952;50.872;6.692;2022-12-07T10:54:12;10.40;;;7.23;;
3873;SDS011;1952;50.872;6.692;2022-12-07T10:56:48;8.57;;;7.60;;
3873;SDS011;1952;50.872;6.692;2022-12-07T10:59:27;8.73;;;7.93;;
3873;SDS011;1952;50.872;6.692;2022-12-07T11:02:00;8.00;;;6.93;;
3873;SDS011;1952;50.872;6.692;2022-12-07T11:04:36;10.33;;;7.90;;
3873;SDS011;1952;50.872;6.692;2022-12-07T11:07:07;7.30;;;6.60;;
3873;SDS011;1952;50.872;6.692;2022-12-07T11:09:49;7.87;;;6.50;;
3873;SDS011;1952;50.872;6.692;2022-12-07T11:12:42;10.43;;;7.60;;
3873;SDS011;1952;50.872;6.692;2022-12-07T11:15:15;11.37;;;8.97;;
3873;SDS011;1952;50.872;6.692;2022-12-07T11:17:59;14.27;;;10.43;;
3873;SDS011;1952;50.872;6.692;2022-12-07T11:20:39;11.93;;;8.80;;
3873;SDS011;1952;50.872;6.692;2022-12-07T11:23:18;13.40;;;9.20;;
3873;SDS011;1952;50.872;6.692;2022-12-07T11:25:53;14.27;;;9.30;;
3873;SDS011;1952;50.872;6.692;2022-12-07T11:28:34;10.10;;;8.83;;
3873;SDS011;1952;50.872;6.692;2022-12-07T11:31:11;12.27;;;8.30;;
3873;SDS011;1952;50.872;6.692;2022-12-07T11:33:41;10.83;;;8.90;;
3873;SDS011;1952;50.872;6.692;2022-12-07T11:36:23;12.20;;;8.63;;
3873;SDS011;1952;50.872;6.692;2022-12-07T11:38:56;12.77;;;10.30;;
3873;SDS011;1952;50.872;6.692;2022-12-07T11:41:27;9.70;;;8.67;;
3873;SDS011;1952;50.872;6.692;2022-12-07T11:43:58;10.87;;;9.13;;
3873;SDS011;1952;50.872;6.692;2022-12-07T11:46:33;8.57;;;7.73;;
3873;SDS011;1952;50.872;6.692;2022-12-07T11:49:12;11.33;;;8.90;;
3873;SDS011;1952;50.872;6.692;2022-12-07T11:51:41;9.70;;;7.93;;
3873;SDS011;1952;50.872;6.692;2022-12-07T11:54:12;10.10;;;7.07;;
3873;SDS011;1952;50.872;6.692;2022-12-07T12:36:57;12.00;;;8.17;;
3873;SDS011;1952;50.872;6.692;2022-12-07T12:39:26;15.63;;;9.50;;
3873;SDS011;1952;50.872;6.692;2022-12-07T12:41:56;10.50;;;8.90;;
3873;SDS011;1952;50.872;6.692;2022-12-07T12:50:37;10.30;;;8.00;;
3873;SDS011;1952;50.872;6.692;2022-12-07T12:53:15;11.07;;;8.90;;
3873;SDS011;1952;50.872;6.692;2022-12-07T12:56:10;8.20;;;7.43;;
3873;SDS011;1952;50.872;6.692;2022-12-07T12:58:54;10.37;;;8.33;;
3873;SDS011;1952;50.872;6.692;2022-12-07T13:02:15;10.73;;;9.47;;
3873;SDS011;1952;50.872;6.692;2022-12-07T13:04:55;9.80;;;8.07;;
3873;SDS011;1952;50.872;6.692;2022-12-07T13:10:35;12.63;;;7.87;;
3873;SDS011;1952;50.872;6.692;2022-12-07T13:22:34;9.90;;;8.27;;
3873;SDS011;1952;50.872;6.692;2022-12-07T13:25:41;10.53;;;7.93;;
3873;SDS011;1952;50.872;6.692;2022-12-07T13:28:45;6.40;;;5.80;;
3873;SDS011;1952;50.872;6.692;2022-12-07T13:31:18;12.10;;;6.13;;
3873;SDS011;1952;50.872;6.692;2022-12-07T13:34:01;9.30;;;7.90;;
3873;SDS011;1952;50.872;6.692;2022-12-07T13:36:31;9.80;;;7.20;;
3873;SDS011;1952;50.872;6.692;2022-12-07T13:39:19;7.50;;;6.80;;
3873;SDS011;1952;50.872;6.692;2022-12-07T13:41:51;7.40;;;6.50;;
3873;SDS011;1952;50.872;6.692;2022-12-07T13:44:21;8.70;;;7.80;;
3873;SDS011;1952;50.872;6.692;2022-12-07T13:46:57;8.50;;;7.40;;
3873;SDS011;1952;50.872;6.692;2022-12-07T13:49:36;9.07;;;7.30;;
3873;SDS011;1952;50.872;6.692;2022-12-07T13:52:13;14.73;;;6.60;;
3873;SDS011;1952;50.872;6.692;2022-12-07T13:55:16;8.77;;;7.90;;
3873;SDS011;1952;50.872;6.692;2022-12-07T13:57:47;9.40;;;7.90;;
3873;SDS011;1952;50.872;6.692;2022-12-07T14:00:19;6.90;;;6.20;;
3873;SDS011;1952;50.872;6.692;2022-12-07T14:02:54;11.57;;;8.10;;
3873;SDS011;1952;50.872;6.692;2022-12-07T14:05:26;7.90;;;7.10;;
3873;SDS011;1952;50.872;6.692;2022-12-07T14:07:56;8.80;;;7.50;;
3873;SDS011;1952;50.872;6.692;2022-12-07T14:10:31;8.60;;;7.80;;
3873;SDS011;1952;50.872;6.692;2022-12-07T14:13:22;8.50;;;7.30;;
3873;SDS011;1952;50.872;6.692;2022-12-07T14:15:57;7.63;;;6.83;;
3873;SDS011;1952;50.872;6.692;2022-12-07T14:18:29;8.80;;;7.90;;
3873;SDS011;1952;50.872;6.692;2022-12-07T14:21:05;8.63;;;7.83;;
3873;SDS011;1952;50.872;6.692;2022-12-07T14:23:34;10.17;;;6.90;;
3873;SDS011;1952;50.872;6.692;2022-12-07T14:26:11;8.67;;;7.77;;
3873;SDS011;1952;50.872;6.692;2022-12-07T14:28:53;10.43;;;7.83;;
3873;SDS011;1952;50.872;6.692;2022-12-07T14:31:54;12.50;;;8.57;;
3873;SDS011;1952;50.872;6.692;2022-12-07T14:34:25;11.43;;;8.23;;
3873;SDS011;1952;50.872;6.692;2022-12-07T14:36:53;9.23;;;7.90;;
3873;SDS011;1952;50.872;6.692;2022-12-07T14:39:23;12.50;;;9.50;;
3873;SDS011;1952;50.872;6.692;2022-12-07T14:41:57;8.13;;;7.33;;
3873;SDS011;1952;50.872;6.692;2022-12-07T14:44:26;8.60;;;7.80;;
3873;SDS011;1952;50.872;6.692;2022-12-07T14:46:59;12.30;;;7.37;;
3873;SDS011;1952;50.872;6.692;2022-12-07T14:49:48;9.03;;;6.37;;
3873;SDS011;1952;50.872;6.692;2022-12-07T14:52:17;9.67;;;7.57;;
3873;SDS011;1952;50.872;6.692;2022-12-07T14:55:08;8.73;;;7.00;;
3873;SDS011;1952;50.872;6.692;2022-12-07T14:57:45;9.27;;;7.77;;
3873;SDS011;1952;50.872;6.692;2022-12-07T15:00:15;9.37;;;8.43;;
3873;SDS011;1952;50.872;6.692;2022-12-07T15:02:49;11.50;;;6.70;;
3873;SDS011;1952;50.872;6.692;2022-12-07T15:05:18;9.90;;;7.80;;
3873;SDS011;1952;50.872;6.692;2022-12-07T15:07:46;9.10;;;7.27;;
3873;SDS011;1952;50.872;6.692;2022-12-07T15:10:16;7.33;;;6.63;;
3873;SDS011;1952;50.872;6.692;2022-12-07T15:12:49;10.47;;;6.77;;
3873;SDS011;1952;50.872;6.692;2022-12-07T15:15:19;7.60;;;7.00;;
3873;SDS011;1952;50.872;6.692;2022-12-07T15:17:47;6.43;;;5.93;;
3873;SDS011;1952;50.872;6.692;2022-12-07T15:20:16;10.70;;;6.33;;
3873;SDS011;1952;50.872;6.692;2022-12-07T15:22:45;6.50;;;5.90;;
3873;SDS011;1952;50.872;6.692;2022-12-07T15:25:13;7.40;;;6.80;;
3873;SDS011;1952;50.872;6.692;2022-12-07T15:27:41;6.90;;;6.40;;
3873;SDS011;1952;50.872;6.692;2022-12-07T15:30:10;8.13;;;7.33;;
3873;SDS011;1952;50.872;6.692;2022-12-07T15:32:39;7.53;;;6.67;;
3873;SDS011;1952;50.872;6.692;2022-12-07T15:35:13;8.43;;;7.53;;
3873;SDS011;1952;50.872;6.692;2022-12-07T15:37:41;7.60;;;6.33;;
3873;SDS011;1952;50.872;6.692;2022-12-07T15:40:10;7.57;;;6.43;;
3873;SDS011;1952;50.872;6.692;2022-12-07T15:42:38;10.23;;;6.93;;
3873;SDS011;1952;50.872;6.692;2022-12-07T15:45:12;8.90;;;7.80;;
3873;SDS011;1952;50.872;6.692;2022-12-07T15:47:45;11.07;;;8.87;;
3873;SDS011;1952;50.872;6.692;2022-12-07T15:50:34;7.53;;;6.67;;
3873;SDS011;1952;50.872;6.692;2022-12-07T15:53:07;8.63;;;5.90;;
3873;SDS011;1952;50.872;6.692;2022-12-07T15:55:37;5.00;;;4.60;;
3873;SDS011;1952;50.872;6.692;2022-12-07T15:58:06;8.40;;;5.33;;
3873;SDS011;1952;50.872;6.692;2022-12-07T16:00:34;6.03;;;4.90;;
3873;SDS011;1952;50.872;6.692;2022-12-07T16:03:09;8.70;;;4.97;;
3873;SDS011;1952;50.872;6.692;2022-12-07T16:05:38;5.47;;;5.07;;
3873;SDS011;1952;50.872;6.692;2022-12-07T16:08:06;6.17;;;5.57;;
3873;SDS011;1952;50.872;6.692;2022-12-07T16:10:39;6.07;;;5.53;;
3873;SDS011;1952;50.872;6.692;2022-12-07T16:13:14;7.60;;;6.87;;
3873;SDS011;1952;50.872;6.692;2022-12-07T16:15:44;5.37;;;4.87;;
3873;SDS011;1952;50.872;6.692;2022-12-07T16:18:18;10.67;;;5.80;;
3873;SDS011;1952;50.872;6.692;2022-12-07T16:20:47;7.27;;;6.57;;
3873;SDS011;1952;50.872;6.692;2022-12-07T16:23:21;6.73;;;6.13;;
3873;SDS011;1952;50.872;6.692;2022-12-07T16:25:49;7.57;;;6.83;;
3873;SDS011;1952;50.872;6.692;2022-12-07T16:28:22;8.70;;;7.80;;
3873;SDS011;1952;50.872;6.692;2022-12-07T16:30:59;10.87;;;7.77;;
3873;SDS011;1952;50.872;6.692;2022-12-07T16:33:29;12.23;;;8.07;;
3873;SDS011;1952;50.872;6.692;2022-12-07T16:35:58;10.00;;;8.30;;
3873;SDS011;1952;50.872;6.692;2022-12-07T16:38:26;13.70;;;9.83;;
3873;SDS011;1952;50.872;6.692;2022-12-07T16:40:55;10.80;;;8.40;;
3873;SDS011;1952;50.872;6.692;2022-12-07T16:43:23;9.07;;;8.13;;
3873;SDS011;1952;50.872;6.692;2022-12-07T16:45:56;10.37;;;9.37;;
3873;SDS011;1952;50.872;6.692;2022-12-07T16:48:24;10.47;;;8.57;;
3873;SDS011;1952;50.872;6.692;2022-12-07T16:50:59;11.77;;;10.30;;
3873;SDS011;1952;50.872;6.692;2022-12-07T16:53:30;9.60;;;8.10;;
3873;SDS011;1952;50.872;6.692;2022-12-07T16:55:58;12.10;;;10.90;;
3873;SDS011;1952;50.872;6.692;2022-12-07T16:58:26;13.23;;;10.73;;
3873;SDS011;1952;50.872;6.692;2022-12-07T17:00:55;13.57;;;10.70;;
3873;SDS011;1952;50.872;6.692;2022-12-07T17:03:28;10.33;;;8.60;;
3873;SDS011;1952;50.872;6.692;2022-12-07T17:05:56;11.97;;;9.00;;
3873;SDS011;1952;50.872;6.692;2022-12-07T17:08:26;9.80;;;8.43;;
3873;SDS011;1952;50.872;6.692;2022-12-07T17:10:54;11.90;;;8.83;;
3873;SDS011;1952;50.872;6.692;2022-12-07T17:13:28;8.70;;;7.80;;
3873;SDS011;1952;50.872;6.692;2022-12-07T17:16:13;8.50;;;7.70;;
3873;SDS011;1952;50.872;6.692;2022-12-07T17:18:46;9.97;;;8.17;;
3873;SDS011;1952;50.872;6.692;2022-12-07T17:21:14;9.73;;;8.80;;
3873;SDS011;1952;50.872;6.692;2022-12-07T17:23:49;11.60;;;7.07;;
3873;SDS011;1952;50.872;6.692;2022-12-07T17:26:31;12.53;;;8.77;;
3873;SDS011;1952;50.872;6.692;2022-12-07T17:29:05;12.67;;;9.53;;
3873;SDS011;1952;50.872;6.692;2022-12-07T17:31:34;9.70;;;7.80;;
3873;SDS011;1952;50.872;6.692;2022-12-07T17:34:03;9.10;;;8.20;;
3873;SDS011;1952;50.872;6.692;2022-12-07T17:36:36;14.03;;;11.20;;
3873;SDS011;1952;50.872;6.692;2022-12-07T17:39:10;12.47;;;10.30;;
3873;SDS011;1952;50.872;6.692;2022-12-07T17:41:44;13.63;;;10.00;;
3873;SDS011;1952;50.872;6.692;2022-12-07T17:44:38;9.30;;;8.37;;
3873;SDS011;1952;50.872;6.692;2022-12-07T17:47:09;10.37;;;8.90;;
3873;SDS011;1952;50.872;6.692;2022-12-07T17:49:38;9.90;;;8.97;;